sensor_id;sensor_type;location;lat;lon;timestamp;P1;durP1;ratioP1;P2;durP2;ratioP2
23187;SDS011;11762;59.878;17.686;2024-03-06T00:01:03;9.67;;;4.50;;
23187;SDS011;11762;59.878;17.686;2024-03-06T00:03:31;7.10;;;3.93;;
23187;SDS011;11762;59.878;17.686;2024-03-06T00:05:59;11.00;;;4.83;;
23187;SDS011;11762;59.878;17.686;2024-03-06T00:08:27;7.37;;;4.23;;
23187;SDS011;11762;59.878;17.686;2024-03-06T00:10:55;7.40;;;4.33;;
23187;SDS011;11762;59.878;17.686;2024-03-06T00:13:22;11.30;;;4.77;;
23187;SDS011;11762;59.878;17.686;2024-03-06T00:15:50;9.93;;;4.40;;
23187;SDS011;11762;59.878;17.686;2024-03-06T00:18:17;8.60;;;4.20;;
23187;SDS011;11762;59.878;17.686;2024-03-06T00:20:44;12.53;;;4.93;;
23187;SDS011;11762;59.878;17.686;2024-03-06T00:23:11;10.00;;;4.13;;
23187;SDS011;11762;59.878;17.686;2024-03-06T00:25:40;10.87;;;4.50;;
23187;SDS011;11762;59.878;17.686;2024-03-06T00:28:07;11.43;;;4.90;;
23187;SDS011;11762;59.878;17.686;2024-03-06T00:30:35;8.97;;;4.53;;
23187;SDS011;11762;59.878;17.686;2024-03-06T00:33:02;7.30;;;4.27;;
23187;SDS011;11762;59.878;17.686;2024-03-06T00:35:29;11.93;;;4.80;;
23187;SDS011;11762;59.878;17.686;2024-03-06T00:37:56;8.60;;;4.53;;
23187;SDS011;11762;59.878;17.686;2024-03-06T00:40:27;10.20;;;4.53;;
23187;SDS011;11762;59.878;17.686;2024-03-06T00:42:57;10.17;;;4.90;;
23187;SDS011;11762;59.878;17.686;2024-03-06T00:45:24;10.87;;;5.13;;
23187;SDS011;11762;59.878;17.686;2024-03-06T00:47:51;11.97;;;4.80;;
23187;SDS011;11762;59.878;17.686;2024-03-06T00:50:19;9.70;;;5.00;;
23187;SDS011;11762;59.878;17.686;2024-03-06T00:52:47;9.77;;;5.13;;
23187;SDS011;11762;59.878;17.686;2024-03-06T00:55:14;9.77;;;5.00;;
23187;SDS011;11762;59.878;17.686;2024-03-06T00:57:42;10.43;;;4.77;;
23187;SDS011;11762;59.878;17.686;2024-03-06T01:00:11;12.87;;;4.87;;
23187;SDS011;11762;59.878;17.686;2024-03-06T01:02:40;11.87;;;5.13;;
23187;SDS011;11762;59.878;17.686;2024-03-06T01:05:07;7.93;;;4.30;;
23187;SDS011;11762;59.878;17.686;2024-03-06T01:07:36;8.00;;;4.20;;
23187;SDS011;11762;59.878;17.686;2024-03-06T01:10:04;7.50;;;4.00;;
23187;SDS011;11762;59.878;17.686;2024-03-06T01:12:32;7.20;;;4.20;;
23187;SDS011;11762;59.878;17.686;2024-03-06T01:14:59;8.43;;;4.03;;
23187;SDS011;11762;59.878;17.686;2024-03-06T01:17:28;6.30;;;3.63;;
23187;SDS011;11762;59.878;17.686;2024-03-06T01:19:55;7.77;;;3.53;;
23187;SDS011;11762;59.878;17.686;2024-03-06T01:22:24;9.20;;;3.77;;
23187;SDS011;11762;59.878;17.686;2024-03-06T01:24:51;8.67;;;3.90;;
23187;SDS011;11762;59.878;17.686;2024-03-06T01:27:19;8.03;;;3.90;;
23187;SDS011;11762;59.878;17.686;2024-03-06T01:29:46;6.80;;;4.00;;
23187;SDS011;11762;59.878;17.686;2024-03-06T01:32:13;13.93;;;3.83;;
23187;SDS011;11762;59.878;17.686;2024-03-06T01:34:42;9.50;;;4.10;;
23187;SDS011;11762;59.878;17.686;2024-03-06T01:37:09;7.50;;;3.67;;
23187;SDS011;11762;59.878;17.686;2024-03-06T01:39:37;8.37;;;3.87;;
23187;SDS011;11762;59.878;17.686;2024-03-06T01:42:04;6.57;;;3.27;;
23187;SDS011;11762;59.878;17.686;2024-03-06T01:44:31;9.70;;;3.80;;
23187;SDS011;11762;59.878;17.686;2024-03-06T01:46:58;6.53;;;3.40;;
23187;SDS011;11762;59.878;17.686;2024-03-06T01:49:26;7.00;;;3.60;;
23187;SDS011;11762;59.878;17.686;2024-03-06T01:51:55;6.57;;;3.90;;
23187;SDS011;11762;59.878;17.686;2024-03-06T01:54:23;9.33;;;3.53;;
23187;SDS011;11762;59.878;17.686;2024-03-06T01:56:50;11.23;;;3.93;;
23187;SDS011;11762;59.878;17.686;2024-03-06T01:59:19;7.00;;;3.60;;
23187;SDS011;11762;59.878;17.686;2024-03-06T02:01:47;7.20;;;3.03;;
23187;SDS011;11762;59.878;17.686;2024-03-06T02:04:15;9.70;;;4.00;;
23187;SDS011;11762;59.878;17.686;2024-03-06T02:06:43;10.53;;;4.00;;
23187;SDS011;11762;59.878;17.686;2024-03-06T02:09:12;8.80;;;3.50;;
23187;SDS011;11762;59.878;17.686;2024-03-06T04:11:03;7.20;;;2.83;;
23187;SDS011;11762;59.878;17.686;2024-03-06T04:13:30;5.93;;;3.00;;
23187;SDS011;11762;59.878;17.686;2024-03-06T04:16:01;10.03;;;3.30;;
23187;SDS011;11762;59.878;17.686;2024-03-06T04:18:29;4.47;;;2.53;;
23187;SDS011;11762;59.878;17.686;2024-03-06T04:20:58;5.73;;;2.27;;
23187;SDS011;11762;59.878;17.686;2024-03-06T04:23:25;7.37;;;2.77;;
23187;SDS011;11762;59.878;17.686;2024-03-06T04:25:53;5.97;;;2.70;;
23187;SDS011;11762;59.878;17.686;2024-03-06T04:28:22;5.20;;;2.97;;
23187;SDS011;11762;59.878;17.686;2024-03-06T04:30:49;6.20;;;3.07;;
23187;SDS011;11762;59.878;17.686;2024-03-06T04:33:16;5.30;;;2.90;;
23187;SDS011;11762;59.878;17.686;2024-03-06T04:35:44;10.60;;;3.00;;
23187;SDS011;11762;59.878;17.686;2024-03-06T04:38:11;12.83;;;2.73;;
23187;SDS011;11762;59.878;17.686;2024-03-06T04:40:38;6.47;;;3.17;;
23187;SDS011;11762;59.878;17.686;2024-03-06T04:43:06;8.80;;;2.80;;
23187;SDS011;11762;59.878;17.686;2024-03-06T04:45:34;8.13;;;3.33;;
23187;SDS011;11762;59.878;17.686;2024-03-06T04:48:02;8.57;;;3.50;;
23187;SDS011;11762;59.878;17.686;2024-03-06T04:50:29;12.57;;;3.60;;
23187;SDS011;11762;59.878;17.686;2024-03-06T04:52:56;6.87;;;3.60;;
23187;SDS011;11762;59.878;17.686;2024-03-06T04:55:24;5.70;;;2.73;;
23187;SDS011;11762;59.878;17.686;2024-03-06T04:57:52;9.17;;;3.23;;
23187;SDS011;11762;59.878;17.686;2024-03-06T05:00:19;7.97;;;3.10;;
23187;SDS011;11762;59.878;17.686;2024-03-06T05:02:48;5.83;;;2.80;;
23187;SDS011;11762;59.878;17.686;2024-03-06T05:05:15;5.87;;;2.83;;
23187;SDS011;11762;59.878;17.686;2024-03-06T05:07:42;11.30;;;2.90;;
23187;SDS011;11762;59.878;17.686;2024-03-06T05:10:10;7.17;;;3.40;;
23187;SDS011;11762;59.878;17.686;2024-03-06T05:12:38;6.30;;;3.23;;
23187;SDS011;11762;59.878;17.686;2024-03-06T05:15:05;7.90;;;3.63;;
23187;SDS011;11762;59.878;17.686;2024-03-06T05:17:33;7.13;;;3.00;;
23187;SDS011;11762;59.878;17.686;2024-03-06T05:20:02;4.73;;;2.63;;
23187;SDS011;11762;59.878;17.686;2024-03-06T05:22:29;4.97;;;2.10;;
23187;SDS011;11762;59.878;17.686;2024-03-06T05:24:56;8.90;;;2.30;;
23187;SDS011;11762;59.878;17.686;2024-03-06T05:27:24;7.33;;;2.83;;
23187;SDS011;11762;59.878;17.686;2024-03-06T05:29:51;8.70;;;2.60;;
23187;SDS011;11762;59.878;17.686;2024-03-06T05:32:18;7.10;;;2.77;;
23187;SDS011;11762;59.878;17.686;2024-03-06T05:34:46;8.23;;;2.77;;
23187;SDS011;11762;59.878;17.686;2024-03-06T05:37:14;6.60;;;2.77;;
23187;SDS011;11762;59.878;17.686;2024-03-06T05:39:42;8.73;;;2.00;;
23187;SDS011;11762;59.878;17.686;2024-03-06T05:42:09;10.37;;;2.90;;
23187;SDS011;11762;59.878;17.686;2024-03-06T05:44:37;14.60;;;3.37;;
23187;SDS011;11762;59.878;17.686;2024-03-06T05:47:04;9.17;;;3.73;;
23187;SDS011;11762;59.878;17.686;2024-03-06T05:49:32;11.17;;;4.17;;
23187;SDS011;11762;59.878;17.686;2024-03-06T05:51:59;9.33;;;3.30;;
23187;SDS011;11762;59.878;17.686;2024-03-06T05:54:29;6.40;;;3.13;;
23187;SDS011;11762;59.878;17.686;2024-03-06T05:56:58;17.23;;;3.90;;
23187;SDS011;11762;59.878;17.686;2024-03-06T05:59:26;9.83;;;3.17;;
23187;SDS011;11762;59.878;17.686;2024-03-06T06:01:54;12.37;;;3.50;;
23187;SDS011;11762;59.878;17.686;2024-03-06T06:04:21;12.03;;;3.43;;
23187;SDS011;11762;59.878;17.686;2024-03-06T06:06:48;10.30;;;2.90;;
23187;SDS011;11762;59.878;17.686;2024-03-06T06:09:16;9.67;;;3.03;;
23187;SDS011;11762;59.878;17.686;2024-03-06T06:11:44;9.33;;;3.10;;
23187;SDS011;11762;59.878;17.686;2024-03-06T06:14:12;14.23;;;3.10;;
23187;SDS011;11762;59.878;17.686;2024-03-06T06:16:40;10.43;;;3.20;;
23187;SDS011;11762;59.878;17.686;2024-03-06T06:19:07;4.70;;;2.60;;
23187;SDS011;11762;59.878;17.686;2024-03-06T06:21:35;10.63;;;2.50;;
23187;SDS011;11762;59.878;17.686;2024-03-06T06:24:02;12.03;;;2.77;;
23187;SDS011;11762;59.878;17.686;2024-03-06T06:26:30;8.53;;;3.20;;
23187;SDS011;11762;59.878;17.686;2024-03-06T06:28:58;8.57;;;2.43;;
23187;SDS011;11762;59.878;17.686;2024-03-06T06:31:26;14.03;;;3.13;;
23187;SDS011;11762;59.878;17.686;2024-03-06T06:33:53;7.33;;;2.43;;
23187;SDS011;11762;59.878;17.686;2024-03-06T06:36:21;6.10;;;2.97;;
23187;SDS011;11762;59.878;17.686;2024-03-06T06:38:48;8.10;;;2.50;;
23187;SDS011;11762;59.878;17.686;2024-03-06T06:41:16;5.40;;;2.43;;
23187;SDS011;11762;59.878;17.686;2024-03-06T06:43:44;5.67;;;2.40;;
23187;SDS011;11762;59.878;17.686;2024-03-06T06:46:13;5.43;;;2.23;;
23187;SDS011;11762;59.878;17.686;2024-03-06T06:48:41;6.03;;;2.30;;
23187;SDS011;11762;59.878;17.686;2024-03-06T06:51:08;11.67;;;2.60;;
23187;SDS011;11762;59.878;17.686;2024-03-06T06:53:37;17.07;;;3.00;;
23187;SDS011;11762;59.878;17.686;2024-03-06T06:56:06;9.50;;;3.20;;
23187;SDS011;11762;59.878;17.686;2024-03-06T06:58:34;8.17;;;2.30;;
23187;SDS011;11762;59.878;17.686;2024-03-06T07:01:01;13.47;;;3.30;;
23187;SDS011;11762;59.878;17.686;2024-03-06T07:03:30;8.30;;;2.50;;
23187;SDS011;11762;59.878;17.686;2024-03-06T07:05:57;9.40;;;2.77;;
23187;SDS011;11762;59.878;17.686;2024-03-06T07:08:24;5.57;;;2.70;;
23187;SDS011;11762;59.878;17.686;2024-03-06T07:10:52;7.20;;;2.53;;
23187;SDS011;11762;59.878;17.686;2024-03-06T07:13:20;13.57;;;3.00;;
23187;SDS011;11762;59.878;17.686;2024-03-06T07:15:47;4.10;;;2.17;;
23187;SDS011;11762;59.878;17.686;2024-03-06T07:18:14;6.00;;;2.27;;
23187;SDS011;11762;59.878;17.686;2024-03-06T07:20:43;3.97;;;2.17;;
23187;SDS011;11762;59.878;17.686;2024-03-06T07:23:10;3.30;;;1.73;;
23187;SDS011;11762;59.878;17.686;2024-03-06T07:25:38;6.37;;;3.20;;
23187;SDS011;11762;59.878;17.686;2024-03-06T07:28:05;5.47;;;2.13;;
23187;SDS011;11762;59.878;17.686;2024-03-06T07:30:32;7.83;;;2.17;;
23187;SDS011;11762;59.878;17.686;2024-03-06T07:33:00;6.73;;;1.90;;
23187;SDS011;11762;59.878;17.686;2024-03-06T07:35:27;8.13;;;2.13;;
23187;SDS011;11762;59.878;17.686;2024-03-06T07:37:55;6.67;;;2.43;;
23187;SDS011;11762;59.878;17.686;2024-03-06T07:40:23;13.43;;;3.33;;
23187;SDS011;11762;59.878;17.686;2024-03-06T07:42:50;9.47;;;2.33;;
23187;SDS011;11762;59.878;17.686;2024-03-06T07:45:17;7.97;;;2.03;;
23187;SDS011;11762;59.878;17.686;2024-03-06T07:47:45;7.00;;;2.07;;
23187;SDS011;11762;59.878;17.686;2024-03-06T07:50:13;6.23;;;1.70;;
23187;SDS011;11762;59.878;17.686;2024-03-06T07:52:44;5.87;;;1.97;;
23187;SDS011;11762;59.878;17.686;2024-03-06T07:55:12;4.30;;;1.63;;
23187;SDS011;11762;59.878;17.686;2024-03-06T07:57:39;5.50;;;2.20;;
23187;SDS011;11762;59.878;17.686;2024-03-06T08:00:07;16.20;;;2.40;;
23187;SDS011;11762;59.878;17.686;2024-03-06T08:02:39;4.63;;;1.90;;
23187;SDS011;11762;59.878;17.686;2024-03-06T08:05:09;4.30;;;2.07;;
23187;SDS011;11762;59.878;17.686;2024-03-06T08:07:37;4.17;;;2.50;;
23187;SDS011;11762;59.878;17.686;2024-03-06T08:10:07;7.27;;;2.30;;
23187;SDS011;11762;59.878;17.686;2024-03-06T08:12:36;5.07;;;2.03;;
23187;SDS011;11762;59.878;17.686;2024-03-06T08:15:03;7.07;;;2.13;;
23187;SDS011;11762;59.878;17.686;2024-03-06T08:17:34;4.67;;;2.07;;
23187;SDS011;11762;59.878;17.686;2024-03-06T08:20:02;4.23;;;2.07;;
23187;SDS011;11762;59.878;17.686;2024-03-06T08:22:32;9.87;;;2.10;;
23187;SDS011;11762;59.878;17.686;2024-03-06T08:25:03;10.83;;;2.10;;
23187;SDS011;11762;59.878;17.686;2024-03-06T08:27:30;15.17;;;2.50;;
23187;SDS011;11762;59.878;17.686;2024-03-06T08:29:59;7.77;;;2.77;;
23187;SDS011;11762;59.878;17.686;2024-03-06T08:32:29;7.63;;;2.00;;
23187;SDS011;11762;59.878;17.686;2024-03-06T08:34:56;7.67;;;2.57;;
23187;SDS011;11762;59.878;17.686;2024-03-06T08:37:24;6.37;;;2.73;;
23187;SDS011;11762;59.878;17.686;2024-03-06T08:39:51;9.00;;;2.13;;
23187;SDS011;11762;59.878;17.686;2024-03-06T08:42:18;8.60;;;3.07;;
23187;SDS011;11762;59.878;17.686;2024-03-06T08:44:46;7.27;;;2.70;;
23187;SDS011;11762;59.878;17.686;2024-03-06T08:47:14;10.03;;;2.07;;
23187;SDS011;11762;59.878;17.686;2024-03-06T08:49:42;5.30;;;2.13;;
23187;SDS011;11762;59.878;17.686;2024-03-06T08:52:09;5.53;;;2.50;;
23187;SDS011;11762;59.878;17.686;2024-03-06T08:54:36;6.00;;;2.10;;
23187;SDS011;11762;59.878;17.686;2024-03-06T08:57:03;8.40;;;2.30;;
23187;SDS011;11762;59.878;17.686;2024-03-06T08:59:31;5.83;;;2.23;;
23187;SDS011;11762;59.878;17.686;2024-03-06T09:01:58;5.73;;;2.37;;
23187;SDS011;11762;59.878;17.686;2024-03-06T09:04:39;6.37;;;2.63;;
23187;SDS011;11762;59.878;17.686;2024-03-06T09:07:07;5.80;;;2.30;;
23187;SDS011;11762;59.878;17.686;2024-03-06T09:09:34;8.00;;;2.50;;
23187;SDS011;11762;59.878;17.686;2024-03-06T09:12:02;9.87;;;2.90;;
23187;SDS011;11762;59.878;17.686;2024-03-06T09:14:30;4.83;;;2.63;;
23187;SDS011;11762;59.878;17.686;2024-03-06T09:16:57;5.50;;;2.83;;
23187;SDS011;11762;59.878;17.686;2024-03-06T09:19:24;4.87;;;2.00;;
23187;SDS011;11762;59.878;17.686;2024-03-06T09:21:53;6.17;;;2.00;;
23187;SDS011;11762;59.878;17.686;2024-03-06T09:24:21;4.33;;;2.10;;
23187;SDS011;11762;59.878;17.686;2024-03-06T09:26:50;4.13;;;2.00;;
23187;SDS011;11762;59.878;17.686;2024-03-06T09:29:17;6.33;;;2.03;;
23187;SDS011;11762;59.878;17.686;2024-03-06T09:31:44;6.37;;;2.27;;
23187;SDS011;11762;59.878;17.686;2024-03-06T09:34:12;4.40;;;1.73;;
23187;SDS011;11762;59.878;17.686;2024-03-06T09:36:40;6.13;;;2.17;;
23187;SDS011;11762;59.878;17.686;2024-03-06T09:39:11;5.03;;;1.57;;
23187;SDS011;11762;59.878;17.686;2024-03-06T09:41:40;10.73;;;2.37;;
23187;SDS011;11762;59.878;17.686;2024-03-06T09:44:07;5.97;;;1.90;;
23187;SDS011;11762;59.878;17.686;2024-03-06T09:46:35;4.23;;;1.90;;
23187;SDS011;11762;59.878;17.686;2024-03-06T09:49:02;10.17;;;2.60;;
23187;SDS011;11762;59.878;17.686;2024-03-06T09:51:29;7.23;;;1.83;;
23187;SDS011;11762;59.878;17.686;2024-03-06T09:53:56;7.30;;;1.90;;
23187;SDS011;11762;59.878;17.686;2024-03-06T09:56:26;6.77;;;2.20;;
23187;SDS011;11762;59.878;17.686;2024-03-06T09:58:53;4.53;;;1.77;;
23187;SDS011;11762;59.878;17.686;2024-03-06T10:01:21;3.07;;;1.50;;
23187;SDS011;11762;59.878;17.686;2024-03-06T10:03:49;5.23;;;1.73;;
23187;SDS011;11762;59.878;17.686;2024-03-06T10:06:16;8.73;;;2.00;;
23187;SDS011;11762;59.878;17.686;2024-03-06T10:08:44;5.73;;;2.20;;
23187;SDS011;11762;59.878;17.686;2024-03-06T10:11:14;4.23;;;1.70;;
23187;SDS011;11762;59.878;17.686;2024-03-06T10:13:43;5.47;;;1.57;;
23187;SDS011;11762;59.878;17.686;2024-03-06T10:16:10;4.73;;;1.90;;
23187;SDS011;11762;59.878;17.686;2024-03-06T10:18:39;7.30;;;2.10;;
23187;SDS011;11762;59.878;17.686;2024-03-06T10:21:06;8.40;;;3.77;;
23187;SDS011;11762;59.878;17.686;2024-03-06T10:23:34;6.10;;;1.87;;
23187;SDS011;11762;59.878;17.686;2024-03-06T10:26:02;6.67;;;1.70;;
23187;SDS011;11762;59.878;17.686;2024-03-06T10:28:29;5.13;;;2.23;;
23187;SDS011;11762;59.878;17.686;2024-03-06T10:31:04;4.93;;;1.63;;
23187;SDS011;11762;59.878;17.686;2024-03-06T10:33:32;5.20;;;1.53;;
23187;SDS011;11762;59.878;17.686;2024-03-06T10:36:02;7.00;;;1.60;;
23187;SDS011;11762;59.878;17.686;2024-03-06T10:38:30;4.00;;;1.43;;
23187;SDS011;11762;59.878;17.686;2024-03-06T10:40:58;4.90;;;1.73;;
23187;SDS011;11762;59.878;17.686;2024-03-06T10:43:27;4.37;;;1.60;;
23187;SDS011;11762;59.878;17.686;2024-03-06T10:46:00;6.40;;;1.63;;
23187;SDS011;11762;59.878;17.686;2024-03-06T10:48:30;3.57;;;1.53;;
23187;SDS011;11762;59.878;17.686;2024-03-06T10:50:59;5.83;;;1.50;;
23187;SDS011;11762;59.878;17.686;2024-03-06T10:53:28;6.37;;;1.70;;
23187;SDS011;11762;59.878;17.686;2024-03-06T10:55:56;5.33;;;1.70;;
23187;SDS011;11762;59.878;17.686;2024-03-06T10:58:23;4.83;;;1.23;;
23187;SDS011;11762;59.878;17.686;2024-03-06T11:00:52;5.53;;;1.33;;
23187;SDS011;11762;59.878;17.686;2024-03-06T11:03:20;3.27;;;1.30;;
23187;SDS011;11762;59.878;17.686;2024-03-06T11:05:49;5.40;;;1.47;;
23187;SDS011;11762;59.878;17.686;2024-03-06T11:08:17;6.67;;;2.17;;
23187;SDS011;11762;59.878;17.686;2024-03-06T11:10:44;3.57;;;1.50;;
23187;SDS011;11762;59.878;17.686;2024-03-06T11:13:20;3.97;;;1.50;;
23187;SDS011;11762;59.878;17.686;2024-03-06T11:26:28;5.03;;;1.53;;
23187;SDS011;11762;59.878;17.686;2024-03-06T11:28:55;5.37;;;2.20;;
23187;SDS011;11762;59.878;17.686;2024-03-06T11:31:22;3.87;;;1.70;;
23187;SDS011;11762;59.878;17.686;2024-03-06T11:33:53;3.57;;;1.60;;
23187;SDS011;11762;59.878;17.686;2024-03-06T11:36:22;3.60;;;1.70;;
23187;SDS011;11762;59.878;17.686;2024-03-06T11:38:51;4.97;;;1.87;;
23187;SDS011;11762;59.878;17.686;2024-03-06T11:41:19;5.77;;;1.80;;
23187;SDS011;11762;59.878;17.686;2024-03-06T11:43:49;5.03;;;1.57;;
23187;SDS011;11762;59.878;17.686;2024-03-06T11:46:18;4.50;;;1.57;;
23187;SDS011;11762;59.878;17.686;2024-03-06T11:48:51;10.57;;;1.87;;
23187;SDS011;11762;59.878;17.686;2024-03-06T11:51:19;6.83;;;1.43;;
23187;SDS011;11762;59.878;17.686;2024-03-06T11:53:49;3.13;;;1.40;;
23187;SDS011;11762;59.878;17.686;2024-03-06T11:56:17;3.33;;;1.70;;
23187;SDS011;11762;59.878;17.686;2024-03-06T11:58:44;3.33;;;1.50;;
23187;SDS011;11762;59.878;17.686;2024-03-06T12:01:13;6.30;;;1.60;;
23187;SDS011;11762;59.878;17.686;2024-03-06T12:03:41;4.57;;;1.50;;
23187;SDS011;11762;59.878;17.686;2024-03-06T12:06:09;3.47;;;1.40;;
23187;SDS011;11762;59.878;17.686;2024-03-06T12:08:38;4.20;;;1.40;;
23187;SDS011;11762;59.878;17.686;2024-03-06T12:11:05;5.27;;;1.40;;
23187;SDS011;11762;59.878;17.686;2024-03-06T12:13:33;6.37;;;1.93;;
23187;SDS011;11762;59.878;17.686;2024-03-06T12:16:04;4.67;;;1.70;;
23187;SDS011;11762;59.878;17.686;2024-03-06T12:18:33;11.70;;;4.00;;
23187;SDS011;11762;59.878;17.686;2024-03-06T12:21:01;12.20;;;5.57;;
23187;SDS011;11762;59.878;17.686;2024-03-06T12:23:29;8.10;;;3.17;;
23187;SDS011;11762;59.878;17.686;2024-03-06T12:26:03;8.33;;;3.30;;
23187;SDS011;11762;59.878;17.686;2024-03-06T12:28:31;7.53;;;3.00;;
23187;SDS011;11762;59.878;17.686;2024-03-06T12:31:01;8.50;;;3.33;;
23187;SDS011;11762;59.878;17.686;2024-03-06T12:33:28;6.60;;;2.00;;
23187;SDS011;11762;59.878;17.686;2024-03-06T12:36:01;14.87;;;5.23;;
23187;SDS011;11762;59.878;17.686;2024-03-06T12:38:29;12.47;;;3.50;;
23187;SDS011;11762;59.878;17.686;2024-03-06T12:40:56;2.37;;;1.27;;
23187;SDS011;11762;59.878;17.686;2024-03-06T12:43:24;5.00;;;1.53;;
23187;SDS011;11762;59.878;17.686;2024-03-06T12:45:51;8.80;;;1.60;;
23187;SDS011;11762;59.878;17.686;2024-03-06T12:48:20;4.60;;;1.60;;
23187;SDS011;11762;59.878;17.686;2024-03-06T12:50:47;5.87;;;1.63;;
23187;SDS011;11762;59.878;17.686;2024-03-06T12:53:18;7.93;;;1.90;;
23187;SDS011;11762;59.878;17.686;2024-03-06T12:55:45;8.37;;;1.77;;
23187;SDS011;11762;59.878;17.686;2024-03-06T12:58:12;3.43;;;1.67;;
23187;SDS011;11762;59.878;17.686;2024-03-06T13:00:40;3.93;;;1.60;;
23187;SDS011;11762;59.878;17.686;2024-03-06T13:03:07;2.77;;;1.20;;
23187;SDS011;11762;59.878;17.686;2024-03-06T13:05:35;5.03;;;1.40;;
23187;SDS011;11762;59.878;17.686;2024-03-06T13:08:03;2.20;;;0.93;;
23187;SDS011;11762;59.878;17.686;2024-03-06T13:10:32;2.90;;;1.30;;
23187;SDS011;11762;59.878;17.686;2024-03-06T13:13:00;1.83;;;1.07;;
23187;SDS011;11762;59.878;17.686;2024-03-06T13:15:28;3.17;;;1.30;;
23187;SDS011;11762;59.878;17.686;2024-03-06T13:17:55;5.73;;;1.00;;
23187;SDS011;11762;59.878;17.686;2024-03-06T13:20:22;5.20;;;2.00;;
23187;SDS011;11762;59.878;17.686;2024-03-06T13:22:49;8.17;;;1.40;;
23187;SDS011;11762;59.878;17.686;2024-03-06T13:25:16;5.87;;;1.43;;
23187;SDS011;11762;59.878;17.686;2024-03-06T13:27:45;5.60;;;1.40;;
23187;SDS011;11762;59.878;17.686;2024-03-06T13:30:13;3.07;;;1.10;;
23187;SDS011;11762;59.878;17.686;2024-03-06T13:32:40;4.87;;;1.27;;
23187;SDS011;11762;59.878;17.686;2024-03-06T13:35:10;7.53;;;1.30;;
23187;SDS011;11762;59.878;17.686;2024-03-06T13:37:38;2.93;;;1.20;;
23187;SDS011;11762;59.878;17.686;2024-03-06T13:40:06;4.10;;;1.30;;
23187;SDS011;11762;59.878;17.686;2024-03-06T13:42:35;4.63;;;1.43;;
23187;SDS011;11762;59.878;17.686;2024-03-06T13:45:04;4.00;;;1.40;;
23187;SDS011;11762;59.878;17.686;2024-03-06T13:47:36;2.27;;;1.03;;
23187;SDS011;11762;59.878;17.686;2024-03-06T13:50:05;4.90;;;1.10;;
23187;SDS011;11762;59.878;17.686;2024-03-06T13:52:33;2.53;;;1.00;;
23187;SDS011;11762;59.878;17.686;2024-03-06T13:55:00;8.63;;;2.40;;
23187;SDS011;11762;59.878;17.686;2024-03-06T13:57:29;5.83;;;1.70;;
23187;SDS011;11762;59.878;17.686;2024-03-06T13:59:58;5.47;;;2.33;;
23187;SDS011;11762;59.878;17.686;2024-03-06T14:02:27;25.70;;;2.83;;
23187;SDS011;11762;59.878;17.686;2024-03-06T14:04:54;9.37;;;2.00;;
23187;SDS011;11762;59.878;17.686;2024-03-06T14:07:22;3.27;;;1.80;;
23187;SDS011;11762;59.878;17.686;2024-03-06T14:09:49;9.17;;;2.27;;
23187;SDS011;11762;59.878;17.686;2024-03-06T14:12:16;10.63;;;2.50;;
23187;SDS011;11762;59.878;17.686;2024-03-06T14:14:43;6.50;;;2.10;;
23187;SDS011;11762;59.878;17.686;2024-03-06T14:17:11;5.60;;;1.90;;
23187;SDS011;11762;59.878;17.686;2024-03-06T14:19:40;12.63;;;2.07;;
23187;SDS011;11762;59.878;17.686;2024-03-06T14:22:08;5.47;;;2.50;;
23187;SDS011;11762;59.878;17.686;2024-03-06T14:24:35;9.13;;;2.47;;
23187;SDS011;11762;59.878;17.686;2024-03-06T14:27:02;5.23;;;2.10;;
23187;SDS011;11762;59.878;17.686;2024-03-06T14:29:30;7.53;;;1.90;;
23187;SDS011;11762;59.878;17.686;2024-03-06T14:31:58;8.53;;;2.17;;
23187;SDS011;11762;59.878;17.686;2024-03-06T14:34:25;5.03;;;1.70;;
23187;SDS011;11762;59.878;17.686;2024-03-06T14:36:54;15.97;;;2.03;;
23187;SDS011;11762;59.878;17.686;2024-03-06T14:39:21;5.27;;;2.00;;
23187;SDS011;11762;59.878;17.686;2024-03-06T14:41:50;6.13;;;2.00;;
23187;SDS011;11762;59.878;17.686;2024-03-06T14:44:18;4.43;;;1.77;;
23187;SDS011;11762;59.878;17.686;2024-03-06T14:46:46;10.40;;;1.90;;
23187;SDS011;11762;59.878;17.686;2024-03-06T14:49:13;11.93;;;2.20;;
23187;SDS011;11762;59.878;17.686;2024-03-06T14:51:42;7.90;;;2.10;;
23187;SDS011;11762;59.878;17.686;2024-03-06T14:54:10;8.40;;;1.70;;
23187;SDS011;11762;59.878;17.686;2024-03-06T14:56:39;6.93;;;2.27;;
23187;SDS011;11762;59.878;17.686;2024-03-06T14:59:06;10.00;;;2.30;;
23187;SDS011;11762;59.878;17.686;2024-03-06T15:01:33;5.93;;;2.70;;
23187;SDS011;11762;59.878;17.686;2024-03-06T15:04:02;11.47;;;2.67;;
23187;SDS011;11762;59.878;17.686;2024-03-06T15:06:29;14.97;;;2.57;;
23187;SDS011;11762;59.878;17.686;2024-03-06T15:08:56;9.60;;;1.90;;
23187;SDS011;11762;59.878;17.686;2024-03-06T15:11:25;6.17;;;2.03;;
23187;SDS011;11762;59.878;17.686;2024-03-06T15:13:57;11.97;;;2.17;;
23187;SDS011;11762;59.878;17.686;2024-03-06T15:16:24;8.30;;;2.30;;
23187;SDS011;11762;59.878;17.686;2024-03-06T15:18:51;4.87;;;1.90;;
23187;SDS011;11762;59.878;17.686;2024-03-06T15:21:20;14.07;;;2.17;;
23187;SDS011;11762;59.878;17.686;2024-03-06T15:23:48;7.77;;;2.53;;
23187;SDS011;11762;59.878;17.686;2024-03-06T15:26:16;9.27;;;2.30;;
23187;SDS011;11762;59.878;17.686;2024-03-06T15:28:45;10.23;;;2.40;;
23187;SDS011;11762;59.878;17.686;2024-03-06T15:31:12;24.17;;;2.83;;
23187;SDS011;11762;59.878;17.686;2024-03-06T15:33:39;13.20;;;2.97;;
23187;SDS011;11762;59.878;17.686;2024-03-06T15:36:07;17.17;;;2.37;;
23187;SDS011;11762;59.878;17.686;2024-03-06T15:38:34;12.20;;;2.50;;
23187;SDS011;11762;59.878;17.686;2024-03-06T15:41:02;7.70;;;1.97;;
23187;SDS011;11762;59.878;17.686;2024-03-06T15:43:29;10.33;;;2.00;;
23187;SDS011;11762;59.878;17.686;2024-03-06T15:45:58;8.50;;;2.20;;
23187;SDS011;11762;59.878;17.686;2024-03-06T15:48:25;9.73;;;2.53;;
23187;SDS011;11762;59.878;17.686;2024-03-06T15:50:53;14.00;;;3.30;;
23187;SDS011;11762;59.878;17.686;2024-03-06T15:53:21;12.50;;;3.20;;
23187;SDS011;11762;59.878;17.686;2024-03-06T15:55:53;21.40;;;3.17;;
23187;SDS011;11762;59.878;17.686;2024-03-06T15:58:21;10.03;;;2.43;;
23187;SDS011;11762;59.878;17.686;2024-03-06T16:00:48;7.77;;;2.47;;
23187;SDS011;11762;59.878;17.686;2024-03-06T16:03:17;12.03;;;2.73;;
23187;SDS011;11762;59.878;17.686;2024-03-06T16:05:44;10.57;;;3.60;;
23187;SDS011;11762;59.878;17.686;2024-03-06T16:08:12;11.60;;;2.23;;
23187;SDS011;11762;59.878;17.686;2024-03-06T16:10:39;10.57;;;2.10;;
23187;SDS011;11762;59.878;17.686;2024-03-06T16:13:07;8.03;;;1.80;;
23187;SDS011;11762;59.878;17.686;2024-03-06T16:15:34;9.00;;;4.13;;
23187;SDS011;11762;59.878;17.686;2024-03-06T16:18:01;5.90;;;2.23;;
23187;SDS011;11762;59.878;17.686;2024-03-06T16:20:30;13.77;;;2.63;;
23187;SDS011;11762;59.878;17.686;2024-03-06T16:22:57;4.47;;;1.97;;
23187;SDS011;11762;59.878;17.686;2024-03-06T16:25:24;9.63;;;2.00;;
23187;SDS011;11762;59.878;17.686;2024-03-06T16:27:51;6.60;;;2.20;;
23187;SDS011;11762;59.878;17.686;2024-03-06T16:30:19;13.70;;;2.60;;
23187;SDS011;11762;59.878;17.686;2024-03-06T16:32:46;16.33;;;3.20;;
23187;SDS011;11762;59.878;17.686;2024-03-06T16:35:14;12.00;;;3.30;;
23187;SDS011;11762;59.878;17.686;2024-03-06T16:37:43;13.57;;;3.03;;
23187;SDS011;11762;59.878;17.686;2024-03-06T16:40:11;7.77;;;2.00;;
23187;SDS011;11762;59.878;17.686;2024-03-06T16:42:38;13.57;;;2.47;;
23187;SDS011;11762;59.878;17.686;2024-03-06T16:45:06;9.33;;;2.20;;